createdAt,value
2018-11-05T00:01:28.506Z,89.90
2018-11-05T00:04:04.718Z,90.50
2018-11-05T00:06:40.773Z,91.50
2018-11-05T00:09:16.936Z,91.90
2018-11-05T00:11:53.200Z,92.00
2018-11-05T00:14:29.571Z,92.50
2018-11-05T00:17:05.660Z,92.50
2018-11-05T00:19:41.887Z,92.50
2018-11-05T00:22:18.440Z,92.70
2018-11-05T00:24:54.568Z,92.40
2018-11-05T00:27:30.709Z,93.00
2018-11-05T00:30:08.502Z,93.30
2018-11-05T00:32:44.964Z,93.30
2018-11-05T00:35:21.092Z,93.20
2018-11-05T00:37:57.243Z,93.50
2018-11-05T00:40:33.368Z,94.00
2018-11-05T00:43:09.454Z,93.80
2018-11-05T00:45:45.649Z,93.60
2018-11-05T00:48:21.459Z,93.70
2018-11-05T00:50:57.619Z,94.20
2018-11-05T00:53:33.809Z,94.10
2018-11-05T00:56:10.076Z,93.90
2018-11-05T00:58:46.169Z,94.00
2018-11-05T01:01:22.370Z,94.10
2018-11-05T01:03:58.503Z,93.70
2018-11-05T01:06:34.628Z,93.60
2018-11-05T01:09:10.761Z,93.90
2018-11-05T01:11:46.953Z,93.80
2018-11-05T01:14:23.183Z,93.70
2018-11-05T01:16:59.379Z,93.90
2018-11-05T01:19:35.579Z,93.40
2018-11-05T01:22:11.746Z,94.00
2018-11-05T01:24:47.970Z,94.10
2018-11-05T01:27:23.981Z,94.10
2018-11-05T01:30:00.185Z,94.40
2018-11-05T01:32:36.339Z,94.20
2018-11-05T01:35:13.394Z,94.30
2018-11-05T01:37:49.579Z,94.80
2018-11-05T01:40:25.587Z,95.10
2018-11-05T01:43:01.798Z,95.40
2018-11-05T01:45:38.013Z,95.70
2018-11-05T01:48:14.217Z,95.50
2018-11-05T01:50:50.290Z,95.40
2018-11-05T01:53:26.320Z,95.50
2018-11-05T01:56:02.519Z,95.30
2018-11-05T01:58:38.476Z,95.80
2018-11-05T02:01:14.537Z,95.50
2018-11-05T02:03:50.714Z,94.90
2018-11-05T02:06:26.833Z,94.80
2018-11-05T02:09:03.080Z,95.20
2018-11-05T02:11:39.348Z,95.40
2018-11-05T02:14:15.372Z,95.60
2018-11-05T02:16:51.561Z,95.70
2018-11-05T02:19:28.789Z,95.70
2018-11-05T02:22:04.831Z,95.70
2018-11-05T02:24:40.985Z,96.10
2018-11-05T02:27:17.260Z,95.70
2018-11-05T02:29:53.326Z,96.10
2018-11-05T02:32:29.501Z,96.10
2018-11-05T02:35:07.186Z,96.00
2018-11-05T02:37:43.974Z,96.40
2018-11-05T02:40:20.991Z,96.30
2018-11-05T02:42:57.207Z,96.40
2018-11-05T02:45:33.322Z,96.40
2018-11-05T02:48:09.375Z,96.80
2018-11-05T02:50:45.565Z,96.80
2018-11-05T02:53:21.737Z,96.50
2018-11-05T02:55:57.879Z,96.70
2018-11-05T02:58:34.038Z,96.80
2018-11-05T03:01:10.216Z,97.20
2018-11-05T03:03:46.176Z,97.60
2018-11-05T03:06:22.372Z,97.00
2018-11-05T03:09:00.523Z,97.20
2018-11-05T03:11:36.712Z,97.30
2018-11-05T03:14:12.823Z,97.50
2018-11-05T03:16:48.948Z,96.80
2018-11-05T03:19:24.978Z,96.90
2018-11-05T03:22:01.103Z,97.10
2018-11-05T03:24:37.274Z,97.10
2018-11-05T03:27:13.385Z,97.00
2018-11-05T03:29:49.399Z,97.10
2018-11-05T03:32:25.675Z,97.80
2018-11-05T03:35:01.824Z,96.30
2018-11-05T03:37:38.201Z,96.20
2018-11-05T03:40:14.640Z,96.40
2018-11-05T03:42:50.887Z,96.20
2018-11-05T03:45:27.104Z,97.00
2018-11-05T03:48:03.222Z,96.20
2018-11-05T03:50:39.252Z,96.20
2018-11-05T03:53:15.488Z,96.70
2018-11-05T03:55:51.652Z,96.70
2018-11-05T03:58:27.678Z,96.10
2018-11-05T04:01:03.672Z,96.20
2018-11-05T04:03:39.926Z,95.80
2018-11-05T04:06:16.138Z,95.90
2018-11-05T04:08:52.123Z,95.90
2018-11-05T04:11:29.619Z,96.20
2018-11-05T04:14:05.930Z,96.30
2018-11-05T04:16:41.996Z,96.50
2018-11-05T04:19:18.039Z,96.60
2018-11-05T04:21:54.301Z,96.80
2018-11-05T04:24:30.539Z,96.60
2018-11-05T04:27:06.830Z,96.50
2018-11-05T04:29:42.927Z,97.00
2018-11-05T04:32:19.148Z,97.30
2018-11-05T04:34:55.436Z,97.50
2018-11-05T04:37:31.642Z,97.30
2018-11-05T04:40:09.507Z,97.30
2018-11-05T04:42:45.602Z,97.80
2018-11-05T04:45:21.745Z,97.40
2018-11-05T04:47:57.978Z,97.40
2018-11-05T04:50:34.186Z,97.70
2018-11-05T04:53:10.394Z,97.20
2018-11-05T04:55:46.565Z,97.00
2018-11-05T04:58:22.638Z,96.10
2018-11-05T05:00:58.844Z,96.30
2018-11-05T05:03:34.922Z,96.40
2018-11-05T05:06:11.032Z,97.10
2018-11-05T05:08:47.258Z,97.40
2018-11-05T05:11:23.280Z,97.60
2018-11-05T05:13:59.394Z,97.70
2018-11-05T05:16:35.534Z,97.70
2018-11-05T05:19:11.771Z,97.60
2018-11-05T05:21:47.804Z,97.90
2018-11-05T05:24:24.002Z,97.30
2018-11-05T05:26:59.970Z,97.00
2018-11-05T05:29:36.371Z,97.10
2018-11-05T05:32:12.465Z,97.50
2018-11-05T05:34:48.569Z,97.70
2018-11-05T05:37:24.882Z,97.30
2018-11-05T05:40:00.992Z,97.30
2018-11-05T05:42:37.179Z,97.50
2018-11-05T05:45:13.637Z,97.30
2018-11-05T05:47:49.738Z,97.50
2018-11-05T05:50:25.775Z,97.10
2018-11-05T05:53:01.902Z,97.30
2018-11-05T05:55:37.911Z,97.20
2018-11-05T05:58:14.194Z,97.10
2018-11-05T06:00:50.500Z,94.30
2018-11-05T06:03:26.681Z,95.20
2018-11-05T06:06:02.942Z,95.70
2018-11-05T06:08:39.150Z,96.30
2018-11-05T06:11:15.213Z,97.00
2018-11-05T06:13:51.441Z,97.40
2018-11-05T06:16:27.607Z,97.50
2018-11-05T06:19:03.912Z,98.00
2018-11-05T06:21:40.023Z,98.20
2018-11-05T06:24:16.325Z,97.50
2018-11-05T06:26:52.449Z,97.80
2018-11-05T06:29:28.729Z,96.10
2018-11-05T06:32:04.912Z,94.90
2018-11-05T06:34:41.309Z,95.50
2018-11-05T06:37:17.548Z,96.60
2018-11-05T06:39:53.818Z,95.50
2018-11-05T06:42:30.161Z,96.40
2018-11-05T06:45:08.235Z,97.20
2018-11-05T06:47:45.155Z,98.00
2018-11-05T06:50:23.691Z,97.90
2018-11-05T06:52:59.980Z,98.20
2018-11-05T06:55:36.056Z,98.30
2018-11-05T06:58:12.013Z,98.10
2018-11-05T07:00:48.173Z,98.40
2018-11-05T07:03:24.397Z,98.60
2018-11-05T07:06:00.588Z,98.40
2018-11-05T07:08:36.754Z,98.30
2018-11-05T07:11:12.956Z,98.40
2018-11-05T07:13:49.072Z,98.40
2018-11-05T07:16:25.228Z,98.10
2018-11-05T07:19:01.653Z,97.90
2018-11-05T07:21:37.636Z,97.30
2018-11-05T07:24:13.668Z,97.90
2018-11-05T07:26:49.916Z,97.60
2018-11-05T07:29:26.174Z,97.60
2018-11-05T07:32:02.281Z,97.90
2018-11-05T07:34:38.362Z,95.90
2018-11-05T07:37:15.005Z,94.70
2018-11-05T07:39:51.084Z,94.20
2018-11-05T07:42:27.564Z,94.50
2018-11-05T07:45:03.596Z,95.40
2018-11-05T07:47:39.695Z,95.30
2018-11-05T07:50:16.898Z,95.20
2018-11-05T07:52:53.274Z,95.20
2018-11-05T07:55:29.306Z,95.10
2018-11-05T07:58:05.578Z,94.70
2018-11-05T08:00:48.202Z,94.60
2018-11-05T08:03:24.580Z,94.40
2018-11-05T08:06:00.911Z,94.20
2018-11-05T08:08:37.143Z,93.60
2018-11-05T08:11:13.203Z,93.20
2018-11-05T08:13:49.273Z,92.90
2018-11-05T08:16:25.397Z,91.00
2018-11-05T08:19:01.718Z,90.10
2018-11-05T08:21:37.945Z,90.20
2018-11-05T08:24:14.015Z,90.90
2018-11-05T08:26:50.177Z,91.00
2018-11-05T08:29:26.339Z,90.30
2018-11-05T08:32:03.421Z,89.00
2018-11-05T08:34:39.594Z,87.90
2018-11-05T08:37:15.907Z,87.10
2018-11-05T08:39:51.936Z,85.90
2018-11-05T08:42:28.174Z,86.30
2018-11-05T08:45:04.459Z,86.80
2018-11-05T08:47:40.439Z,83.80
2018-11-05T08:50:17.861Z,79.70
2018-11-05T08:52:53.934Z,79.60
2018-11-05T08:55:30.115Z,80.70
2018-11-05T08:58:06.204Z,82.20
2018-11-05T09:00:52.501Z,82.60
2018-11-05T09:03:28.534Z,81.30
2018-11-05T09:06:04.775Z,81.50
2018-11-05T09:08:40.803Z,75.80
2018-11-05T09:11:17.162Z,75.30
2018-11-05T09:13:52.982Z,75.10
2018-11-05T09:16:29.093Z,76.00
2018-11-05T09:19:05.329Z,75.30
2018-11-05T09:21:41.608Z,75.40
2018-11-05T09:24:17.811Z,75.70
2018-11-05T09:26:53.948Z,75.10
2018-11-05T09:29:30.072Z,74.30
2018-11-05T09:32:06.654Z,74.20
2018-11-05T09:34:42.839Z,75.90
2018-11-05T09:37:18.962Z,76.60
2018-11-05T09:39:56.111Z,76.60
2018-11-05T09:42:32.381Z,77.50
2018-11-05T09:45:12.527Z,76.70
2018-11-05T09:47:48.655Z,76.20
2018-11-05T09:50:24.869Z,75.80
2018-11-05T09:53:01.021Z,75.40
2018-11-05T09:55:37.318Z,71.50
2018-11-05T09:58:13.375Z,71.20
2018-11-05T10:00:49.578Z,71.60
2018-11-05T10:03:26.146Z,70.80
2018-11-05T10:06:02.116Z,72.90
2018-11-05T10:08:38.104Z,74.00
2018-11-05T10:11:14.161Z,72.90
2018-11-05T10:13:50.390Z,73.20
2018-11-05T10:16:28.102Z,71.00
2018-11-05T10:19:04.111Z,72.00
2018-11-05T10:21:40.175Z,72.70
2018-11-05T10:24:16.170Z,72.50
2018-11-05T10:26:53.330Z,73.00
2018-11-05T10:29:29.605Z,73.00
2018-11-05T10:32:05.946Z,71.20
2018-11-05T10:34:41.991Z,71.50
2018-11-05T10:37:18.125Z,71.80
2018-11-05T10:39:54.288Z,72.50
2018-11-05T10:42:30.321Z,72.30
2018-11-05T10:45:08.327Z,71.60
2018-11-05T10:47:44.430Z,72.20
2018-11-05T10:50:20.661Z,72.70
2018-11-05T10:52:56.798Z,73.10
2018-11-05T10:55:33.031Z,72.90
2018-11-05T10:58:09.389Z,72.40
2018-11-05T11:00:50.694Z,67.90
2018-11-05T11:03:30.976Z,68.40
2018-11-05T11:06:08.303Z,69.50
2018-11-05T11:08:44.508Z,70.10
2018-11-05T11:11:20.810Z,67.60
2018-11-05T11:13:56.896Z,66.30
2018-11-05T11:16:32.994Z,65.30
2018-11-05T11:19:09.215Z,64.60
2018-11-05T11:21:45.318Z,65.80
2018-11-05T11:24:21.564Z,66.20
2018-11-05T11:26:57.572Z,66.30
2018-11-05T11:29:33.723Z,65.40
2018-11-05T11:32:10.091Z,64.50
2018-11-05T11:34:46.787Z,62.00
2018-11-05T11:37:22.757Z,59.10
2018-11-05T11:39:59.303Z,59.50
2018-11-05T11:42:36.626Z,60.60
2018-11-05T11:45:14.085Z,60.30
2018-11-05T11:47:50.345Z,61.20
2018-11-05T11:50:26.592Z,61.10
2018-11-05T11:53:02.974Z,61.80
2018-11-05T11:55:39.371Z,59.70
2018-11-05T11:58:15.643Z,55.30
2018-11-05T12:00:51.638Z,53.70
2018-11-05T12:03:29.698Z,51.70
2018-11-05T12:06:06.719Z,53.80
2018-11-05T12:08:42.802Z,53.90
2018-11-05T12:11:18.872Z,53.70
2018-11-05T12:13:54.919Z,52.00
2018-11-05T12:16:30.989Z,51.40
2018-11-05T12:19:07.142Z,51.10
2018-11-05T12:21:44.358Z,52.50
2018-11-05T12:24:22.380Z,52.50
2018-11-05T12:26:59.760Z,53.10
2018-11-05T12:29:36.425Z,52.80
2018-11-05T12:32:12.782Z,53.10
2018-11-05T12:34:48.935Z,52.70
2018-11-05T12:37:25.844Z,51.20
2018-11-05T12:40:01.802Z,51.90
2018-11-05T12:42:38.020Z,52.00
2018-11-05T12:45:14.487Z,52.30
2018-11-05T12:47:50.446Z,52.00
2018-11-05T12:50:26.653Z,52.90
2018-11-05T12:53:02.815Z,53.90
2018-11-05T12:55:38.982Z,54.60
2018-11-05T12:58:15.098Z,55.90
2018-11-05T13:00:51.352Z,56.30
2018-11-05T13:03:27.388Z,56.40
2018-11-05T13:06:03.502Z,56.70
2018-11-05T13:08:39.779Z,57.50
2018-11-05T13:11:15.841Z,58.90
2018-11-05T13:13:52.092Z,59.20
2018-11-05T13:16:28.370Z,60.40
2018-11-05T13:19:04.505Z,61.60
2018-11-05T13:21:40.478Z,61.80
2018-11-05T13:24:16.641Z,62.40
2018-11-05T13:26:53.056Z,64.10
2018-11-05T13:29:30.168Z,63.60
2018-11-05T13:32:07.106Z,63.50
2018-11-05T13:34:43.312Z,63.30
2018-11-05T13:37:19.890Z,64.10
2018-11-05T13:39:56.080Z,64.30
2018-11-05T13:42:32.304Z,64.30
2018-11-05T13:45:10.313Z,64.50
2018-11-05T13:47:47.157Z,63.00
2018-11-05T13:50:23.153Z,63.00
2018-11-05T13:52:59.251Z,61.10
2018-11-05T13:55:35.527Z,59.50
2018-11-05T13:58:11.770Z,58.10
2018-11-05T14:00:47.878Z,57.70
2018-11-05T14:03:24.028Z,56.90
2018-11-05T14:06:00.259Z,56.50
2018-11-05T14:08:36.426Z,56.20
2018-11-05T14:11:12.440Z,56.80
2018-11-05T14:13:49.501Z,56.50
2018-11-05T14:16:25.583Z,55.60
2018-11-05T14:19:03.238Z,55.90
2018-11-05T14:21:39.684Z,55.70
2018-11-05T14:24:15.909Z,55.50
2018-11-05T14:26:52.924Z,55.80
2018-11-05T14:29:29.427Z,55.70
2018-11-05T14:32:05.683Z,55.60
2018-11-05T14:34:42.951Z,55.70
2018-11-05T14:37:19.950Z,55.80
2018-11-05T14:39:56.027Z,55.80
2018-11-05T14:42:32.370Z,55.20
2018-11-05T14:45:13.437Z,55.60
2018-11-05T14:47:51.237Z,56.60
2018-11-05T14:50:27.354Z,57.00
2018-11-05T14:53:04.525Z,57.30
2018-11-05T14:55:40.805Z,57.50
2018-11-05T14:58:16.901Z,58.00
2018-11-05T15:00:53.389Z,57.40
2018-11-05T15:03:29.666Z,58.80
2018-11-05T15:06:06.031Z,59.10
2018-11-05T15:08:42.302Z,59.40
2018-11-05T15:11:18.411Z,59.60
2018-11-05T15:13:54.619Z,60.80
2018-11-05T15:16:30.902Z,59.90
2018-11-05T15:19:07.511Z,60.60
2018-11-05T15:21:43.491Z,61.70
2018-11-05T15:24:19.462Z,63.00
2018-11-05T15:26:55.952Z,63.30
2018-11-05T15:29:32.131Z,63.40
2018-11-05T15:32:08.753Z,64.30
2018-11-05T15:34:45.014Z,63.90
2018-11-05T15:37:21.250Z,64.20
2018-11-05T15:39:58.019Z,64.90
2018-11-05T15:42:34.154Z,65.80
2018-11-05T15:45:12.109Z,66.40
2018-11-05T15:47:48.118Z,67.10
2018-11-05T15:50:24.216Z,67.60
2018-11-05T15:53:00.787Z,67.60
2018-11-05T15:55:36.712Z,68.30
2018-11-05T15:58:12.897Z,70.70
2018-11-05T16:00:48.924Z,71.90
2018-11-05T16:03:25.025Z,70.90
2018-11-05T16:06:01.256Z,71.50
2018-11-05T16:08:37.429Z,71.90
2018-11-05T16:11:13.563Z,72.10
2018-11-05T16:13:49.722Z,73.00
2018-11-05T16:16:25.859Z,73.50
2018-11-05T16:19:02.112Z,73.70
2018-11-05T16:21:38.288Z,75.00
2018-11-05T16:24:14.657Z,75.10
2018-11-05T16:26:50.650Z,75.60
2018-11-05T16:29:26.778Z,76.10
2018-11-05T16:32:03.116Z,78.10
2018-11-05T16:34:39.261Z,78.20
2018-11-05T16:37:15.455Z,80.10
2018-11-05T16:39:51.786Z,79.60
2018-11-05T16:42:27.909Z,80.70
2018-11-05T16:45:04.032Z,81.50
2018-11-05T16:47:40.643Z,80.00
2018-11-05T16:50:23.468Z,79.30
2018-11-05T16:52:59.466Z,79.40
2018-11-05T16:55:35.642Z,79.80
2018-11-05T16:58:11.930Z,80.10
2018-11-05T17:00:48.148Z,80.30
2018-11-05T17:03:24.199Z,80.10
2018-11-05T17:06:00.949Z,80.80
2018-11-05T17:08:37.078Z,80.90
2018-11-05T17:11:13.363Z,81.00
2018-11-05T17:13:49.630Z,81.00
2018-11-05T17:16:25.830Z,81.90
2018-11-05T17:19:02.448Z,81.30
2018-11-05T17:21:38.435Z,81.30
2018-11-05T17:24:14.511Z,82.00
2018-11-05T17:26:50.616Z,82.60
2018-11-05T17:29:26.884Z,82.50
2018-11-05T17:32:03.824Z,82.40
2018-11-05T17:34:40.008Z,83.10
2018-11-05T17:37:16.463Z,82.90
2018-11-05T17:39:52.707Z,82.90
2018-11-05T17:42:29.851Z,83.20
2018-11-05T17:45:07.649Z,83.20
2018-11-05T17:47:43.635Z,83.90
2018-11-05T17:50:20.978Z,83.70
2018-11-05T17:52:58.169Z,83.80
2018-11-05T17:55:34.223Z,84.30
2018-11-05T17:58:10.448Z,85.10
2018-11-05T18:00:47.006Z,85.70
2018-11-05T18:03:24.065Z,85.30
2018-11-05T18:06:00.144Z,85.40
2018-11-05T18:08:36.302Z,84.50
2018-11-05T18:11:12.409Z,84.70
2018-11-05T18:13:48.554Z,85.90
2018-11-05T18:16:24.625Z,86.20
2018-11-05T18:19:00.936Z,86.40
2018-11-05T18:21:36.996Z,86.70
2018-11-05T18:24:13.050Z,87.20
2018-11-05T18:26:49.234Z,87.00
2018-11-05T18:29:25.320Z,88.10
2018-11-05T18:32:01.581Z,87.90
2018-11-05T18:34:37.617Z,88.00
2018-11-05T18:37:14.256Z,88.20
2018-11-05T18:39:50.419Z,88.80
2018-11-05T18:42:26.512Z,89.20
2018-11-05T18:45:02.598Z,88.90
2018-11-05T18:47:38.726Z,89.60
2018-11-05T18:50:15.884Z,90.30
2018-11-05T18:52:51.849Z,90.60
2018-11-05T18:55:28.064Z,90.50
2018-11-05T18:58:04.162Z,91.10
2018-11-05T19:00:45.923Z,91.50
2018-11-05T19:03:22.166Z,91.90
2018-11-05T19:05:58.268Z,91.90
2018-11-05T19:08:34.484Z,92.30
2018-11-05T19:11:10.710Z,92.30
2018-11-05T19:13:46.882Z,93.60
2018-11-05T19:16:22.986Z,93.50
2018-11-05T19:19:00.207Z,93.60
2018-11-05T19:21:36.489Z,93.70
2018-11-05T19:24:12.860Z,93.70
2018-11-05T19:26:48.664Z,95.10
2018-11-05T19:29:24.834Z,94.90
2018-11-05T19:32:01.005Z,93.60
2018-11-05T19:34:37.106Z,93.30
2018-11-05T19:37:13.341Z,95.30
2018-11-05T19:39:50.570Z,96.30
2018-11-05T19:42:27.278Z,97.10
2018-11-05T19:45:03.949Z,96.40
2018-11-05T19:47:40.206Z,96.20
2018-11-05T19:50:17.514Z,96.20
2018-11-05T19:52:54.486Z,96.90
2018-11-05T19:55:30.662Z,98.00
2018-11-05T19:58:06.847Z,96.70
2018-11-05T20:00:43.153Z,96.30
2018-11-05T20:03:19.353Z,96.20
2018-11-05T20:05:55.616Z,96.40
2018-11-05T20:08:31.783Z,95.70
2018-11-05T20:11:07.968Z,96.10
2018-11-05T20:13:44.016Z,96.50
2018-11-05T20:16:20.370Z,97.10
2018-11-05T20:18:56.568Z,96.90
2018-11-05T20:21:32.604Z,97.00
2018-11-05T20:24:09.337Z,96.80
2018-11-05T20:26:45.417Z,96.40
2018-11-05T20:29:21.553Z,95.30
2018-11-05T20:31:57.882Z,95.10
2018-11-05T20:34:33.961Z,96.80
2018-11-05T20:37:10.192Z,97.50
2018-11-05T20:39:46.465Z,98.00
2018-11-05T20:42:22.700Z,98.40
2018-11-05T20:44:58.824Z,98.30
2018-11-05T20:47:35.032Z,98.10
2018-11-05T20:50:13.187Z,98.50
2018-11-05T20:52:49.201Z,98.20
2018-11-05T20:55:25.192Z,98.30
2018-11-05T20:58:01.323Z,98.20
2018-11-05T21:00:38.945Z,97.90
2018-11-05T21:03:15.096Z,97.50
2018-11-05T21:05:51.026Z,97.80
2018-11-05T21:08:27.254Z,99.30
2018-11-05T21:11:03.385Z,99.90
2018-11-05T21:13:39.582Z,99.90
2018-11-05T21:16:15.685Z,98.80
2018-11-05T21:18:51.871Z,98.50
2018-11-05T21:23:51.246Z,98.20
2018-11-05T21:26:27.301Z,99.30
2018-11-05T21:29:03.464Z,97.60
2018-11-05T21:31:39.655Z,96.60
2018-11-05T21:34:15.785Z,96.60
2018-11-05T21:36:52.007Z,97.40
2018-11-05T21:39:27.962Z,96.50
2018-11-05T21:42:04.117Z,96.50
2018-11-05T21:44:40.283Z,96.50
2018-11-05T21:47:16.388Z,96.60
2018-11-05T21:49:52.894Z,96.70
2018-11-05T21:52:29.211Z,96.20
2018-11-05T21:55:06.552Z,96.50
2018-11-05T21:57:44.976Z,96.50
2018-11-05T22:00:24.575Z,96.20
2018-11-05T22:03:02.062Z,96.30
2018-11-05T22:05:38.693Z,96.30
2018-11-05T22:08:14.856Z,96.70
2018-11-05T22:10:51.069Z,96.90
2018-11-05T22:13:27.408Z,96.90
2018-11-05T22:16:03.417Z,97.40
2018-11-05T22:18:39.816Z,97.20
2018-11-05T22:21:15.970Z,96.90
2018-11-05T22:23:52.118Z,96.50
2018-11-05T22:26:28.326Z,96.80
2018-11-05T22:29:04.817Z,96.60
2018-11-05T22:31:40.975Z,96.70
2018-11-05T22:34:17.132Z,96.80
2018-11-05T22:36:53.302Z,96.60
2018-11-05T22:39:29.451Z,96.60
2018-11-05T22:42:05.915Z,96.70
2018-11-05T22:44:42.100Z,96.80
2018-11-05T22:47:18.404Z,97.10
2018-11-05T22:49:54.690Z,97.80
2018-11-05T22:52:30.972Z,98.70
2018-11-05T22:55:07.593Z,97.90
2018-11-05T22:57:43.759Z,97.30
2018-11-05T23:00:25.356Z,98.60
2018-11-05T23:03:08.811Z,99.90
2018-11-05T23:05:44.886Z,99.90
2018-11-05T23:08:20.924Z,99.90
2018-11-05T23:10:57.291Z,99.90
2018-11-05T23:13:33.334Z,99.90
2018-11-05T23:16:09.535Z,99.90
2018-11-05T23:18:45.579Z,98.90
2018-11-05T23:21:21.699Z,97.40
2018-11-05T23:23:57.933Z,95.90
2018-11-05T23:26:34.078Z,96.30
2018-11-05T23:29:10.256Z,97.00
2018-11-05T23:31:46.434Z,97.70
2018-11-05T23:34:22.672Z,97.70
2018-11-05T23:36:58.850Z,97.10
2018-11-05T23:39:34.951Z,97.30
2018-11-05T23:42:11.143Z,97.70
2018-11-05T23:44:47.281Z,97.60
2018-11-05T23:47:27.540Z,98.10
2018-11-05T23:50:03.616Z,98.70
2018-11-05T23:52:39.961Z,99.00
2018-11-05T23:55:15.983Z,98.50
2018-11-05T23:57:52.192Z,96.70
